sensor_id;sensor_type;location;lat;lon;timestamp;temperature;humidity
27647;DHT22;42229;51.230;6.240;2022-12-29T00:01:32;13.30;99.90
27647;DHT22;42229;51.230;6.240;2022-12-29T00:03:59;13.30;99.90
27647;DHT22;42229;51.230;6.240;2022-12-29T00:06:25;13.30;99.90
27647;DHT22;42229;51.230;6.240;2022-12-29T00:08:52;13.30;99.90
27647;DHT22;42229;51.230;6.240;2022-12-29T00:11:22;13.40;99.90
27647;DHT22;42229;51.230;6.240;2022-12-29T00:13:50;13.40;99.90
27647;DHT22;42229;51.230;6.240;2022-12-29T00:16:36;13.50;99.90
27647;DHT22;42229;51.230;6.240;2022-12-29T00:19:03;13.40;99.90
27647;DHT22;42229;51.230;6.240;2022-12-29T00:21:29;13.50;99.90
27647;DHT22;42229;51.230;6.240;2022-12-29T00:24:19;13.50;99.90
27647;DHT22;42229;51.230;6.240;2022-12-29T00:29:45;13.40;99.90
27647;DHT22;42229;51.230;6.240;2022-12-29T00:32:30;13.40;99.90
27647;DHT22;42229;51.230;6.240;2022-12-29T00:37:55;13.30;99.90
27647;DHT22;42229;51.230;6.240;2022-12-29T00:40:41;13.30;99.90
27647;DHT22;42229;51.230;6.240;2022-12-29T00:43:26;13.20;99.90
27647;DHT22;42229;51.230;6.240;2022-12-29T00:46:11;13.20;99.90
27647;DHT22;42229;51.230;6.240;2022-12-29T00:48:37;13.10;99.90
27647;DHT22;42229;51.230;6.240;2022-12-29T00:51:22;13.10;99.90
27647;DHT22;42229;51.230;6.240;2022-12-29T00:53:49;13.20;99.90
27647;DHT22;42229;51.230;6.240;2022-12-29T00:56:15;13.20;99.90
27647;DHT22;42229;51.230;6.240;2022-12-29T00:58:42;13.20;99.90
27647;DHT22;42229;51.230;6.240;2022-12-29T01:01:08;13.20;99.90
27647;DHT22;42229;51.230;6.240;2022-12-29T01:03:35;13.30;99.90
27647;DHT22;42229;51.230;6.240;2022-12-29T01:06:03;13.30;99.90
27647;DHT22;42229;51.230;6.240;2022-12-29T01:11:12;13.40;99.90
27647;DHT22;42229;51.230;6.240;2022-12-29T01:13:39;13.50;99.90
27647;DHT22;42229;51.230;6.240;2022-12-29T01:16:07;13.50;99.90
27647;DHT22;42229;51.230;6.240;2022-12-29T01:18:34;13.60;99.90
27647;DHT22;42229;51.230;6.240;2022-12-29T01:21:01;13.60;99.90
27647;DHT22;42229;51.230;6.240;2022-12-29T01:23:31;13.70;99.90
27647;DHT22;42229;51.230;6.240;2022-12-29T01:26:07;13.70;99.90
27647;DHT22;42229;51.230;6.240;2022-12-29T01:28:34;13.70;99.90
27647;DHT22;42229;51.230;6.240;2022-12-29T01:31:01;13.80;99.90
27647;DHT22;42229;51.230;6.240;2022-12-29T01:33:27;13.80;99.90
27647;DHT22;42229;51.230;6.240;2022-12-29T01:35:53;13.80;99.90
27647;DHT22;42229;51.230;6.240;2022-12-29T01:38:19;13.90;99.90
27647;DHT22;42229;51.230;6.240;2022-12-29T01:40:47;13.90;99.90
27647;DHT22;42229;51.230;6.240;2022-12-29T01:43:13;13.80;99.90
27647;DHT22;42229;51.230;6.240;2022-12-29T01:45:44;13.80;99.90
27647;DHT22;42229;51.230;6.240;2022-12-29T01:48:14;13.90;99.90
27647;DHT22;42229;51.230;6.240;2022-12-29T01:50:41;13.90;99.90
27647;DHT22;42229;51.230;6.240;2022-12-29T01:53:18;13.90;99.90
27647;DHT22;42229;51.230;6.240;2022-12-29T01:55:51;13.90;99.90
27647;DHT22;42229;51.230;6.240;2022-12-29T01:58:22;13.80;99.90
27647;DHT22;42229;51.230;6.240;2022-12-29T02:00:50;13.90;99.90
27647;DHT22;42229;51.230;6.240;2022-12-29T02:03:16;13.90;99.90
27647;DHT22;42229;51.230;6.240;2022-12-29T02:05:52;13.90;99.90
27647;DHT22;42229;51.230;6.240;2022-12-29T02:08:22;13.90;99.90
27647;DHT22;42229;51.230;6.240;2022-12-29T02:10:51;13.90;99.90
27647;DHT22;42229;51.230;6.240;2022-12-29T02:13:17;13.90;99.90
27647;DHT22;42229;51.230;6.240;2022-12-29T02:16:03;13.90;99.90
27647;DHT22;42229;51.230;6.240;2022-12-29T02:18:56;13.90;99.90
27647;DHT22;42229;51.230;6.240;2022-12-29T02:29:41;13.90;99.90
27647;DHT22;42229;51.230;6.240;2022-12-29T02:32:18;13.90;99.90
27647;DHT22;42229;51.230;6.240;2022-12-29T02:37:43;13.90;99.90
27647;DHT22;42229;51.230;6.240;2022-12-29T02:40:28;13.90;99.90
27647;DHT22;42229;51.230;6.240;2022-12-29T02:43:16;13.90;99.90
27647;DHT22;42229;51.230;6.240;2022-12-29T02:45:54;13.90;99.90
27647;DHT22;42229;51.230;6.240;2022-12-29T02:48:34;13.90;99.90
27647;DHT22;42229;51.230;6.240;2022-12-29T02:51:11;13.90;99.90
27647;DHT22;42229;51.230;6.240;2022-12-29T02:54:00;13.90;99.90
27647;DHT22;42229;51.230;6.240;2022-12-29T02:56:46;13.90;99.90
27647;DHT22;42229;51.230;6.240;2022-12-29T02:59:12;13.90;99.90
27647;DHT22;42229;51.230;6.240;2022-12-29T03:10:17;13.90;99.90
27647;DHT22;42229;51.230;6.240;2022-12-29T03:12:53;13.90;99.90
27647;DHT22;42229;51.230;6.240;2022-12-29T03:15:53;13.90;99.90
27647;DHT22;42229;51.230;6.240;2022-12-29T03:18:50;14.00;99.90
27647;DHT22;42229;51.230;6.240;2022-12-29T03:24:36;13.90;99.90
27647;DHT22;42229;51.230;6.240;2022-12-29T03:27:05;14.00;99.90
27647;DHT22;42229;51.230;6.240;2022-12-29T03:29:39;13.90;99.90
27647;DHT22;42229;51.230;6.240;2022-12-29T03:32:08;13.90;99.90
27647;DHT22;42229;51.230;6.240;2022-12-29T03:34:35;13.90;99.90
27647;DHT22;42229;51.230;6.240;2022-12-29T03:37:03;13.90;99.90
27647;DHT22;42229;51.230;6.240;2022-12-29T03:39:31;13.90;99.90
27647;DHT22;42229;51.230;6.240;2022-12-29T03:41:58;13.90;99.90
27647;DHT22;42229;51.230;6.240;2022-12-29T03:44:35;13.90;99.90
27647;DHT22;42229;51.230;6.240;2022-12-29T03:47:03;13.90;99.90
27647;DHT22;42229;51.230;6.240;2022-12-29T03:49:29;13.90;99.90
27647;DHT22;42229;51.230;6.240;2022-12-29T03:51:56;13.90;99.90
27647;DHT22;42229;51.230;6.240;2022-12-29T03:54:24;13.90;99.90
27647;DHT22;42229;51.230;6.240;2022-12-29T03:56:50;13.90;99.90
27647;DHT22;42229;51.230;6.240;2022-12-29T03:59:22;14.00;99.90
27647;DHT22;42229;51.230;6.240;2022-12-29T04:01:49;14.00;99.90
27647;DHT22;42229;51.230;6.240;2022-12-29T04:04:15;14.00;99.90
27647;DHT22;42229;51.230;6.240;2022-12-29T04:06:41;14.00;99.90
27647;DHT22;42229;51.230;6.240;2022-12-29T04:09:09;14.00;99.90
27647;DHT22;42229;51.230;6.240;2022-12-29T04:11:40;14.00;99.90
27647;DHT22;42229;51.230;6.240;2022-12-29T04:14:07;14.00;99.90
27647;DHT22;42229;51.230;6.240;2022-12-29T04:16:33;14.00;99.90
27647;DHT22;42229;51.230;6.240;2022-12-29T04:19:03;13.90;99.90
27647;DHT22;42229;51.230;6.240;2022-12-29T04:21:29;13.90;99.90
27647;DHT22;42229;51.230;6.240;2022-12-29T04:23:55;14.00;99.90
27647;DHT22;42229;51.230;6.240;2022-12-29T04:26:22;14.00;99.90
27647;DHT22;42229;51.230;6.240;2022-12-29T04:29:06;14.00;99.90
27647;DHT22;42229;51.230;6.240;2022-12-29T04:31:58;14.10;99.90
27647;DHT22;42229;51.230;6.240;2022-12-29T04:34:28;14.10;99.90
27647;DHT22;42229;51.230;6.240;2022-12-29T04:36:54;14.10;99.90
27647;DHT22;42229;51.230;6.240;2022-12-29T04:39:20;14.10;99.90
27647;DHT22;42229;51.230;6.240;2022-12-29T04:41:47;14.10;99.90
27647;DHT22;42229;51.230;6.240;2022-12-29T04:44:17;14.10;99.90
27647;DHT22;42229;51.230;6.240;2022-12-29T04:46:49;14.10;99.90
27647;DHT22;42229;51.230;6.240;2022-12-29T04:49:54;14.10;99.90
27647;DHT22;42229;51.230;6.240;2022-12-29T04:52:34;14.10;99.90
27647;DHT22;42229;51.230;6.240;2022-12-29T04:55:02;14.10;99.90
27647;DHT22;42229;51.230;6.240;2022-12-29T04:57:29;14.10;99.90
27647;DHT22;42229;51.230;6.240;2022-12-29T04:59:58;14.00;99.90
27647;DHT22;42229;51.230;6.240;2022-12-29T05:02:24;14.10;99.90
27647;DHT22;42229;51.230;6.240;2022-12-29T05:04:51;14.00;99.90
27647;DHT22;42229;51.230;6.240;2022-12-29T05:07:18;13.90;99.90
27647;DHT22;42229;51.230;6.240;2022-12-29T05:09:45;13.80;99.90
27647;DHT22;42229;51.230;6.240;2022-12-29T05:12:11;13.80;99.90
27647;DHT22;42229;51.230;6.240;2022-12-29T05:14:46;13.80;99.90
27647;DHT22;42229;51.230;6.240;2022-12-29T05:17:13;13.70;99.90
27647;DHT22;42229;51.230;6.240;2022-12-29T05:19:40;13.70;99.90
27647;DHT22;42229;51.230;6.240;2022-12-29T05:22:06;13.50;99.90
27647;DHT22;42229;51.230;6.240;2022-12-29T05:24:32;13.50;99.90
27647;DHT22;42229;51.230;6.240;2022-12-29T05:27:00;13.40;99.90
27647;DHT22;42229;51.230;6.240;2022-12-29T05:29:44;13.30;99.90
27647;DHT22;42229;51.230;6.240;2022-12-29T05:32:11;13.30;99.90
27647;DHT22;42229;51.230;6.240;2022-12-29T05:34:37;13.20;99.90
27647;DHT22;42229;51.230;6.240;2022-12-29T05:37:04;13.10;99.90
27647;DHT22;42229;51.230;6.240;2022-12-29T05:39:30;13.10;99.90
27647;DHT22;42229;51.230;6.240;2022-12-29T05:42:00;13.10;99.90
27647;DHT22;42229;51.230;6.240;2022-12-29T05:44:35;13.10;99.90
27647;DHT22;42229;51.230;6.240;2022-12-29T05:47:13;13.00;99.90
27647;DHT22;42229;51.230;6.240;2022-12-29T05:49:48;13.00;99.90
27647;DHT22;42229;51.230;6.240;2022-12-29T05:52:46;13.00;99.90
27647;DHT22;42229;51.230;6.240;2022-12-29T05:55:13;13.00;99.90
27647;DHT22;42229;51.230;6.240;2022-12-29T05:57:41;13.00;99.90
27647;DHT22;42229;51.230;6.240;2022-12-29T06:00:10;13.00;99.90
27647;DHT22;42229;51.230;6.240;2022-12-29T06:02:45;12.90;99.90
27647;DHT22;42229;51.230;6.240;2022-12-29T06:05:12;12.90;99.90
27647;DHT22;42229;51.230;6.240;2022-12-29T06:07:39;12.90;99.90
27647;DHT22;42229;51.230;6.240;2022-12-29T06:10:06;13.00;99.90
27647;DHT22;42229;51.230;6.240;2022-12-29T06:12:40;13.00;99.90
27647;DHT22;42229;51.230;6.240;2022-12-29T06:15:07;13.00;99.90
27647;DHT22;42229;51.230;6.240;2022-12-29T06:17:34;13.00;99.90
27647;DHT22;42229;51.230;6.240;2022-12-29T06:20:01;13.10;99.90
27647;DHT22;42229;51.230;6.240;2022-12-29T06:22:27;13.20;99.90
27647;DHT22;42229;51.230;6.240;2022-12-29T06:24:53;13.20;99.90
27647;DHT22;42229;51.230;6.240;2022-12-29T06:27:20;13.30;99.90
27647;DHT22;42229;51.230;6.240;2022-12-29T06:29:47;13.40;99.90
27647;DHT22;42229;51.230;6.240;2022-12-29T06:32:13;13.40;99.90
27647;DHT22;42229;51.230;6.240;2022-12-29T06:34:46;13.50;99.90
27647;DHT22;42229;51.230;6.240;2022-12-29T06:37:12;13.40;99.90
27647;DHT22;42229;51.230;6.240;2022-12-29T06:39:40;13.40;99.90
27647;DHT22;42229;51.230;6.240;2022-12-29T06:42:10;13.50;99.90
27647;DHT22;42229;51.230;6.240;2022-12-29T06:44:44;13.50;99.90
27647;DHT22;42229;51.230;6.240;2022-12-29T06:47:10;13.40;99.90
27647;DHT22;42229;51.230;6.240;2022-12-29T06:49:36;13.50;99.90
27647;DHT22;42229;51.230;6.240;2022-12-29T06:52:03;13.50;99.90
27647;DHT22;42229;51.230;6.240;2022-12-29T06:54:30;13.50;99.90
27647;DHT22;42229;51.230;6.240;2022-12-29T06:56:56;13.60;99.90
27647;DHT22;42229;51.230;6.240;2022-12-29T06:59:23;13.60;99.90
27647;DHT22;42229;51.230;6.240;2022-12-29T07:01:50;13.60;99.90
27647;DHT22;42229;51.230;6.240;2022-12-29T07:04:16;13.60;99.90
27647;DHT22;42229;51.230;6.240;2022-12-29T07:06:43;13.60;99.90
27647;DHT22;42229;51.230;6.240;2022-12-29T07:09:09;13.60;99.90
27647;DHT22;42229;51.230;6.240;2022-12-29T07:11:35;13.50;99.90
27647;DHT22;42229;51.230;6.240;2022-12-29T07:14:02;13.40;99.90
27647;DHT22;42229;51.230;6.240;2022-12-29T07:16:29;13.40;99.90
27647;DHT22;42229;51.230;6.240;2022-12-29T07:18:56;13.40;99.90
27647;DHT22;42229;51.230;6.240;2022-12-29T07:21:22;13.40;99.90
27647;DHT22;42229;51.230;6.240;2022-12-29T07:23:49;13.40;99.90
27647;DHT22;42229;51.230;6.240;2022-12-29T07:26:15;13.30;99.90
27647;DHT22;42229;51.230;6.240;2022-12-29T07:28:43;13.30;99.90
27647;DHT22;42229;51.230;6.240;2022-12-29T07:31:20;13.30;99.90
27647;DHT22;42229;51.230;6.240;2022-12-29T07:33:47;13.30;99.90
27647;DHT22;42229;51.230;6.240;2022-12-29T07:36:14;13.20;99.90
27647;DHT22;42229;51.230;6.240;2022-12-29T07:38:41;13.20;99.90
27647;DHT22;42229;51.230;6.240;2022-12-29T07:41:08;13.20;99.90
27647;DHT22;42229;51.230;6.240;2022-12-29T07:43:34;13.30;99.90
27647;DHT22;42229;51.230;6.240;2022-12-29T07:46:20;13.40;99.90
27647;DHT22;42229;51.230;6.240;2022-12-29T07:48:46;13.30;99.90
27647;DHT22;42229;51.230;6.240;2022-12-29T07:51:13;13.30;99.90
27647;DHT22;42229;51.230;6.240;2022-12-29T07:53:39;13.20;99.90
27647;DHT22;42229;51.230;6.240;2022-12-29T07:56:05;13.30;99.90
27647;DHT22;42229;51.230;6.240;2022-12-29T07:58:32;13.20;99.90
27647;DHT22;42229;51.230;6.240;2022-12-29T08:00:58;13.20;99.90
27647;DHT22;42229;51.230;6.240;2022-12-29T08:03:24;13.20;99.90
27647;DHT22;42229;51.230;6.240;2022-12-29T08:05:51;13.20;99.90
27647;DHT22;42229;51.230;6.240;2022-12-29T08:08:18;13.20;99.90
27647;DHT22;42229;51.230;6.240;2022-12-29T08:10:44;13.20;99.90
27647;DHT22;42229;51.230;6.240;2022-12-29T08:13:10;13.20;99.90
27647;DHT22;42229;51.230;6.240;2022-12-29T08:15:38;13.20;99.90
27647;DHT22;42229;51.230;6.240;2022-12-29T08:18:04;13.20;99.90
27647;DHT22;42229;51.230;6.240;2022-12-29T08:20:30;13.20;99.90
27647;DHT22;42229;51.230;6.240;2022-12-29T08:22:57;13.30;99.90
27647;DHT22;42229;51.230;6.240;2022-12-29T08:25:23;13.20;99.90
27647;DHT22;42229;51.230;6.240;2022-12-29T08:27:50;13.20;99.90
27647;DHT22;42229;51.230;6.240;2022-12-29T08:30:16;13.20;99.90
27647;DHT22;42229;51.230;6.240;2022-12-29T08:32:42;13.10;99.90
27647;DHT22;42229;51.230;6.240;2022-12-29T08:35:08;13.10;99.90
27647;DHT22;42229;51.230;6.240;2022-12-29T08:37:35;13.10;99.90
27647;DHT22;42229;51.230;6.240;2022-12-29T08:40:01;13.00;99.90
27647;DHT22;42229;51.230;6.240;2022-12-29T08:42:30;13.00;99.90
27647;DHT22;42229;51.230;6.240;2022-12-29T08:44:57;13.00;99.90
27647;DHT22;42229;51.230;6.240;2022-12-29T08:47:24;13.00;99.90
27647;DHT22;42229;51.230;6.240;2022-12-29T08:49:50;12.90;99.90
27647;DHT22;42229;51.230;6.240;2022-12-29T08:52:16;12.90;99.90
27647;DHT22;42229;51.230;6.240;2022-12-29T08:54:43;12.90;99.90
27647;DHT22;42229;51.230;6.240;2022-12-29T08:57:09;12.90;99.90
27647;DHT22;42229;51.230;6.240;2022-12-29T08:59:48;13.00;99.90
27647;DHT22;42229;51.230;6.240;2022-12-29T09:02:15;13.10;99.90
27647;DHT22;42229;51.230;6.240;2022-12-29T09:04:41;13.10;99.90
27647;DHT22;42229;51.230;6.240;2022-12-29T09:07:07;13.20;99.90
27647;DHT22;42229;51.230;6.240;2022-12-29T09:09:33;13.20;99.90
27647;DHT22;42229;51.230;6.240;2022-12-29T09:11:59;13.30;99.90
27647;DHT22;42229;51.230;6.240;2022-12-29T09:14:26;13.30;99.90
27647;DHT22;42229;51.230;6.240;2022-12-29T09:16:52;13.30;99.90
27647;DHT22;42229;51.230;6.240;2022-12-29T09:19:37;13.30;99.90
27647;DHT22;42229;51.230;6.240;2022-12-29T09:22:03;13.30;99.90
27647;DHT22;42229;51.230;6.240;2022-12-29T09:24:30;13.30;99.90
27647;DHT22;42229;51.230;6.240;2022-12-29T09:26:56;13.20;99.90
27647;DHT22;42229;51.230;6.240;2022-12-29T09:29:23;13.30;99.90
27647;DHT22;42229;51.230;6.240;2022-12-29T09:31:49;13.40;99.90
27647;DHT22;42229;51.230;6.240;2022-12-29T09:34:15;13.40;99.90
27647;DHT22;42229;51.230;6.240;2022-12-29T09:36:42;13.30;99.90
27647;DHT22;42229;51.230;6.240;2022-12-29T09:39:08;13.30;99.90
27647;DHT22;42229;51.230;6.240;2022-12-29T09:44:27;13.40;99.90
27647;DHT22;42229;51.230;6.240;2022-12-29T09:47:03;13.40;99.90
27647;DHT22;42229;51.230;6.240;2022-12-29T09:52:08;13.30;99.90
27647;DHT22;42229;51.230;6.240;2022-12-29T09:54:41;13.40;99.90
27647;DHT22;42229;51.230;6.240;2022-12-29T09:57:27;13.30;99.90
27647;DHT22;42229;51.230;6.240;2022-12-29T10:00:14;13.30;99.90
27647;DHT22;42229;51.230;6.240;2022-12-29T10:02:49;13.30;99.90
27647;DHT22;42229;51.230;6.240;2022-12-29T10:07:55;13.30;99.90
27647;DHT22;42229;51.230;6.240;2022-12-29T10:13:04;13.30;99.90
27647;DHT22;42229;51.230;6.240;2022-12-29T10:21:34;13.20;99.90
27647;DHT22;42229;51.230;6.240;2022-12-29T10:24:12;13.30;99.90
27647;DHT22;42229;51.230;6.240;2022-12-29T10:26:42;13.30;99.90
27647;DHT22;42229;51.230;6.240;2022-12-29T10:29:17;13.20;99.90
27647;DHT22;42229;51.230;6.240;2022-12-29T10:31:56;13.20;99.90
27647;DHT22;42229;51.230;6.240;2022-12-29T10:37:03;13.30;99.90
27647;DHT22;42229;51.230;6.240;2022-12-29T10:39:40;13.30;99.90
27647;DHT22;42229;51.230;6.240;2022-12-29T10:44:48;13.40;99.90
27647;DHT22;42229;51.230;6.240;2022-12-29T10:47:15;13.40;99.90
27647;DHT22;42229;51.230;6.240;2022-12-29T10:49:45;13.50;99.90
27647;DHT22;42229;51.230;6.240;2022-12-29T10:52:13;13.40;99.90
27647;DHT22;42229;51.230;6.240;2022-12-29T10:54:54;13.50;99.90
27647;DHT22;42229;51.230;6.240;2022-12-29T11:00:01;13.50;99.90
27647;DHT22;42229;51.230;6.240;2022-12-29T11:05:16;13.50;99.90
27647;DHT22;42229;51.230;6.240;2022-12-29T11:07:58;13.50;99.90
27647;DHT22;42229;51.230;6.240;2022-12-29T11:13:02;13.50;99.90
27647;DHT22;42229;51.230;6.240;2022-12-29T11:15:40;13.50;99.90
27647;DHT22;42229;51.230;6.240;2022-12-29T11:18:26;13.50;99.90
27647;DHT22;42229;51.230;6.240;2022-12-29T11:21:01;13.50;99.90
27647;DHT22;42229;51.230;6.240;2022-12-29T11:23:36;13.60;99.90
27647;DHT22;42229;51.230;6.240;2022-12-29T11:28:36;13.70;99.90
27647;DHT22;42229;51.230;6.240;2022-12-29T11:31:04;13.70;99.90
27647;DHT22;42229;51.230;6.240;2022-12-29T11:33:31;13.70;99.90
27647;DHT22;42229;51.230;6.240;2022-12-29T11:36:02;13.70;99.90
27647;DHT22;42229;51.230;6.240;2022-12-29T11:38:37;13.70;99.90
27647;DHT22;42229;51.230;6.240;2022-12-29T11:41:05;13.60;99.90
27647;DHT22;42229;51.230;6.240;2022-12-29T11:43:33;13.50;99.90
27647;DHT22;42229;51.230;6.240;2022-12-29T11:46:02;13.50;99.90
27647;DHT22;42229;51.230;6.240;2022-12-29T11:48:32;13.50;99.90
27647;DHT22;42229;51.230;6.240;2022-12-29T11:51:03;13.50;99.90
27647;DHT22;42229;51.230;6.240;2022-12-29T11:53:41;13.40;99.90
27647;DHT22;42229;51.230;6.240;2022-12-29T11:56:10;13.30;99.90
27647;DHT22;42229;51.230;6.240;2022-12-29T11:58:39;13.40;99.90
27647;DHT22;42229;51.230;6.240;2022-12-29T12:01:19;13.40;99.90
27647;DHT22;42229;51.230;6.240;2022-12-29T12:03:52;13.40;99.90
27647;DHT22;42229;51.230;6.240;2022-12-29T12:06:25;13.40;99.90
27647;DHT22;42229;51.230;6.240;2022-12-29T12:08:53;13.40;99.90
27647;DHT22;42229;51.230;6.240;2022-12-29T12:11:22;13.40;99.90
27647;DHT22;42229;51.230;6.240;2022-12-29T12:14:15;13.40;99.90
27647;DHT22;42229;51.230;6.240;2022-12-29T12:17:29;13.40;99.90
27647;DHT22;42229;51.230;6.240;2022-12-29T12:25:55;13.30;99.90
27647;DHT22;42229;51.230;6.240;2022-12-29T12:28:37;13.40;99.90
27647;DHT22;42229;51.230;6.240;2022-12-29T12:31:15;13.40;99.90
27647;DHT22;42229;51.230;6.240;2022-12-29T12:33:46;13.40;99.90
27647;DHT22;42229;51.230;6.240;2022-12-29T12:39:14;13.40;99.90
27647;DHT22;42229;51.230;6.240;2022-12-29T12:44:38;13.40;99.90
27647;DHT22;42229;51.230;6.240;2022-12-29T12:50:32;13.40;99.90
27647;DHT22;42229;51.230;6.240;2022-12-29T12:58:54;13.40;99.90
27647;DHT22;42229;51.230;6.240;2022-12-29T13:06:48;13.40;99.90
27647;DHT22;42229;51.230;6.240;2022-12-29T13:12:18;13.50;99.90
27647;DHT22;42229;51.230;6.240;2022-12-29T13:20:36;13.40;99.90
27647;DHT22;42229;51.230;6.240;2022-12-29T13:26:04;13.40;99.90
27647;DHT22;42229;51.230;6.240;2022-12-29T13:31:27;13.40;99.90
27647;DHT22;42229;51.230;6.240;2022-12-29T13:36:29;13.40;99.90
27647;DHT22;42229;51.230;6.240;2022-12-29T13:39:15;13.40;99.90
27647;DHT22;42229;51.230;6.240;2022-12-29T13:41:45;13.40;99.90
27647;DHT22;42229;51.230;6.240;2022-12-29T13:44:16;13.50;99.90
27647;DHT22;42229;51.230;6.240;2022-12-29T13:46:45;13.40;99.90
27647;DHT22;42229;51.230;6.240;2022-12-29T13:49:19;13.40;99.90
27647;DHT22;42229;51.230;6.240;2022-12-29T13:54:29;13.30;99.90
27647;DHT22;42229;51.230;6.240;2022-12-29T13:57:31;13.40;99.90
27647;DHT22;42229;51.230;6.240;2022-12-29T14:00:14;13.40;99.90
27647;DHT22;42229;51.230;6.240;2022-12-29T14:02:46;13.40;99.90
27647;DHT22;42229;51.230;6.240;2022-12-29T14:05:27;13.40;99.90
27647;DHT22;42229;51.230;6.240;2022-12-29T14:07:59;13.40;99.90
27647;DHT22;42229;51.230;6.240;2022-12-29T14:10:32;13.40;99.90
27647;DHT22;42229;51.230;6.240;2022-12-29T14:13:03;13.40;99.90
27647;DHT22;42229;51.230;6.240;2022-12-29T14:15:37;13.40;99.90
27647;DHT22;42229;51.230;6.240;2022-12-29T14:21:27;13.40;99.90
27647;DHT22;42229;51.230;6.240;2022-12-29T14:28:33;13.40;99.90
27647;DHT22;42229;51.230;6.240;2022-12-29T14:31:04;13.40;99.90
27647;DHT22;42229;51.230;6.240;2022-12-29T14:36:40;13.30;99.90
27647;DHT22;42229;51.230;6.240;2022-12-29T14:39:47;13.30;99.90
27647;DHT22;42229;51.230;6.240;2022-12-29T14:42:14;13.20;99.90
27647;DHT22;42229;51.230;6.240;2022-12-29T14:47:56;13.20;99.90
27647;DHT22;42229;51.230;6.240;2022-12-29T14:50:04;13.10;99.90
27647;DHT22;42229;51.230;6.240;2022-12-29T14:52:32;13.10;99.90
27647;DHT22;42229;51.230;6.240;2022-12-29T14:55:28;13.10;99.90
27647;DHT22;42229;51.230;6.240;2022-12-29T14:58:00;13.10;99.90
27647;DHT22;42229;51.230;6.240;2022-12-29T15:00:29;13.10;99.90
27647;DHT22;42229;51.230;6.240;2022-12-29T15:03:07;13.10;99.90
27647;DHT22;42229;51.230;6.240;2022-12-29T15:08:32;13.00;99.90
27647;DHT22;42229;51.230;6.240;2022-12-29T15:11:01;13.00;99.90
27647;DHT22;42229;51.230;6.240;2022-12-29T15:13:33;13.00;99.90
27647;DHT22;42229;51.230;6.240;2022-12-29T15:16:00;13.00;99.90
27647;DHT22;42229;51.230;6.240;2022-12-29T15:18:31;12.90;99.90
27647;DHT22;42229;51.230;6.240;2022-12-29T15:21:05;12.90;99.90
27647;DHT22;42229;51.230;6.240;2022-12-29T15:23:32;12.90;99.90
27647;DHT22;42229;51.230;6.240;2022-12-29T15:26:01;12.70;99.90
27647;DHT22;42229;51.230;6.240;2022-12-29T15:28:39;12.70;99.90
27647;DHT22;42229;51.230;6.240;2022-12-29T15:31:22;12.60;99.90
27647;DHT22;42229;51.230;6.240;2022-12-29T15:33:51;12.60;99.90
27647;DHT22;42229;51.230;6.240;2022-12-29T15:36:22;12.50;99.90
27647;DHT22;42229;51.230;6.240;2022-12-29T15:38:51;12.50;99.90
27647;DHT22;42229;51.230;6.240;2022-12-29T15:47:19;12.20;99.90
27647;DHT22;42229;51.230;6.240;2022-12-29T15:49:50;12.10;99.90
27647;DHT22;42229;51.230;6.240;2022-12-29T15:52:19;12.10;99.90
27647;DHT22;42229;51.230;6.240;2022-12-29T15:54:48;12.10;99.90
27647;DHT22;42229;51.230;6.240;2022-12-29T15:57:22;12.10;99.90
27647;DHT22;42229;51.230;6.240;2022-12-29T15:59:53;12.10;99.90
27647;DHT22;42229;51.230;6.240;2022-12-29T16:02:20;12.00;99.90
27647;DHT22;42229;51.230;6.240;2022-12-29T16:04:48;12.00;99.90
27647;DHT22;42229;51.230;6.240;2022-12-29T16:07:50;12.00;99.90
27647;DHT22;42229;51.230;6.240;2022-12-29T16:10:21;12.00;99.90
27647;DHT22;42229;51.230;6.240;2022-12-29T16:15:46;12.10;99.90
27647;DHT22;42229;51.230;6.240;2022-12-29T16:18:20;12.00;99.90
27647;DHT22;42229;51.230;6.240;2022-12-29T16:20:56;12.00;99.90
27647;DHT22;42229;51.230;6.240;2022-12-29T16:23:24;12.00;99.90
27647;DHT22;42229;51.230;6.240;2022-12-29T16:25:52;12.00;99.90
27647;DHT22;42229;51.230;6.240;2022-12-29T16:28:23;12.00;99.90
27647;DHT22;42229;51.230;6.240;2022-12-29T16:30:57;12.00;99.90
27647;DHT22;42229;51.230;6.240;2022-12-29T16:33:48;12.10;99.90
27647;DHT22;42229;51.230;6.240;2022-12-29T16:36:32;12.10;99.90
27647;DHT22;42229;51.230;6.240;2022-12-29T16:39:20;12.10;99.90
27647;DHT22;42229;51.230;6.240;2022-12-29T16:41:52;12.00;99.90
27647;DHT22;42229;51.230;6.240;2022-12-29T16:44:22;12.00;99.90
27647;DHT22;42229;51.230;6.240;2022-12-29T16:47:04;12.00;99.90
27647;DHT22;42229;51.230;6.240;2022-12-29T16:49:43;12.00;99.90
27647;DHT22;42229;51.230;6.240;2022-12-29T16:52:13;11.90;99.90
27647;DHT22;42229;51.230;6.240;2022-12-29T16:54:43;11.80;99.90
27647;DHT22;42229;51.230;6.240;2022-12-29T16:57:19;11.80;99.90
27647;DHT22;42229;51.230;6.240;2022-12-29T16:59:47;11.50;99.90
27647;DHT22;42229;51.230;6.240;2022-12-29T17:02:16;11.10;99.90
27647;DHT22;42229;51.230;6.240;2022-12-29T17:04:45;10.90;99.90
27647;DHT22;42229;51.230;6.240;2022-12-29T17:07:17;10.70;99.90
27647;DHT22;42229;51.230;6.240;2022-12-29T17:09:47;10.50;99.90
27647;DHT22;42229;51.230;6.240;2022-12-29T17:12:18;10.30;99.90
27647;DHT22;42229;51.230;6.240;2022-12-29T17:14:51;10.10;99.90
27647;DHT22;42229;51.230;6.240;2022-12-29T17:17:40;10.00;99.90
27647;DHT22;42229;51.230;6.240;2022-12-29T17:22:42;9.80;99.90
27647;DHT22;42229;51.230;6.240;2022-12-29T17:25:16;9.70;99.90
27647;DHT22;42229;51.230;6.240;2022-12-29T17:28:01;9.60;99.90
27647;DHT22;42229;51.230;6.240;2022-12-29T17:30:29;9.60;99.90
27647;DHT22;42229;51.230;6.240;2022-12-29T17:33:02;9.50;99.90
27647;DHT22;42229;51.230;6.240;2022-12-29T17:35:29;9.40;99.90
27647;DHT22;42229;51.230;6.240;2022-12-29T17:37:56;9.50;99.90
27647;DHT22;42229;51.230;6.240;2022-12-29T17:40:26;9.40;99.90
27647;DHT22;42229;51.230;6.240;2022-12-29T17:42:54;9.30;99.90
27647;DHT22;42229;51.230;6.240;2022-12-29T17:45:22;9.30;99.90
27647;DHT22;42229;51.230;6.240;2022-12-29T17:47:49;9.40;99.90
27647;DHT22;42229;51.230;6.240;2022-12-29T17:50:17;9.30;99.90
27647;DHT22;42229;51.230;6.240;2022-12-29T17:52:54;9.30;99.90
27647;DHT22;42229;51.230;6.240;2022-12-29T17:55:22;9.30;99.90
27647;DHT22;42229;51.230;6.240;2022-12-29T17:57:49;9.30;99.90
27647;DHT22;42229;51.230;6.240;2022-12-29T18:00:17;9.30;99.90
27647;DHT22;42229;51.230;6.240;2022-12-29T18:02:45;9.30;99.90
27647;DHT22;42229;51.230;6.240;2022-12-29T18:05:33;9.30;99.90
27647;DHT22;42229;51.230;6.240;2022-12-29T18:07:58;9.20;99.90
27647;DHT22;42229;51.230;6.240;2022-12-29T18:10:25;9.20;99.90
27647;DHT22;42229;51.230;6.240;2022-12-29T18:12:57;9.20;99.90
27647;DHT22;42229;51.230;6.240;2022-12-29T18:15:29;9.30;99.90
27647;DHT22;42229;51.230;6.240;2022-12-29T18:18:00;9.30;99.90